sensor_id;sensor_type;location;lat;lon;timestamp;temperature;humidity
52036;DHT22;38046;49.448;32.074;2023-02-01T00:00:23;4.50;79.20
52036;DHT22;38046;49.448;32.074;2023-02-01T00:02:49;4.50;79.30
52036;DHT22;38046;49.448;32.074;2023-02-01T00:05:15;4.50;79.30
52036;DHT22;38046;49.448;32.074;2023-02-01T00:07:40;4.50;79.40
52036;DHT22;38046;49.448;32.074;2023-02-01T00:10:07;4.50;79.40
52036;DHT22;38046;49.448;32.074;2023-02-01T00:12:33;4.50;79.50
52036;DHT22;38046;49.448;32.074;2023-02-01T00:14:58;4.50;79.50
52036;DHT22;38046;49.448;32.074;2023-02-01T00:17:24;4.50;79.60
52036;DHT22;38046;49.448;32.074;2023-02-01T00:19:50;4.50;79.70
52036;DHT22;38046;49.448;32.074;2023-02-01T00:22:16;4.60;79.60
52036;DHT22;38046;49.448;32.074;2023-02-01T00:24:42;4.60;79.70
52036;DHT22;38046;49.448;32.074;2023-02-01T00:27:07;4.60;79.70
52036;DHT22;38046;49.448;32.074;2023-02-01T00:29:33;4.60;79.70
52036;DHT22;38046;49.448;32.074;2023-02-01T00:31:59;4.50;79.60
52036;DHT22;38046;49.448;32.074;2023-02-01T00:34:24;4.50;79.60
52036;DHT22;38046;49.448;32.074;2023-02-01T00:36:50;4.50;79.70
52036;DHT22;38046;49.448;32.074;2023-02-01T00:39:16;4.50;79.90
52036;DHT22;38046;49.448;32.074;2023-02-01T00:41:42;4.40;79.90
52036;DHT22;38046;49.448;32.074;2023-02-01T00:44:08;4.40;80.10
52036;DHT22;38046;49.448;32.074;2023-02-01T00:46:33;4.40;80.20
52036;DHT22;38046;49.448;32.074;2023-02-01T00:48:59;4.40;80.50
52036;DHT22;38046;49.448;32.074;2023-02-01T00:51:27;4.40;80.70
52036;DHT22;38046;49.448;32.074;2023-02-01T00:53:53;4.50;80.50
52036;DHT22;38046;49.448;32.074;2023-02-01T00:56:19;4.50;80.40
52036;DHT22;38046;49.448;32.074;2023-02-01T00:58:45;4.50;80.60
52036;DHT22;38046;49.448;32.074;2023-02-01T01:01:14;4.50;80.40
52036;DHT22;38046;49.448;32.074;2023-02-01T01:03:42;4.60;80.30
52036;DHT22;38046;49.448;32.074;2023-02-01T01:06:14;4.60;80.30
52036;DHT22;38046;49.448;32.074;2023-02-01T01:08:40;4.60;80.20
52036;DHT22;38046;49.448;32.074;2023-02-01T01:13:36;4.70;80.10
52036;DHT22;38046;49.448;32.074;2023-02-01T01:16:03;4.80;80.00
52036;DHT22;38046;49.448;32.074;2023-02-01T01:18:30;4.80;79.80
52036;DHT22;38046;49.448;32.074;2023-02-01T01:20:57;4.80;79.60
52036;DHT22;38046;49.448;32.074;2023-02-01T01:23:23;4.90;79.50
52036;DHT22;38046;49.448;32.074;2023-02-01T01:25:48;4.90;79.20
52036;DHT22;38046;49.448;32.074;2023-02-01T01:28:14;4.90;79.20
52036;DHT22;38046;49.448;32.074;2023-02-01T01:30:40;5.00;79.30
52036;DHT22;38046;49.448;32.074;2023-02-01T01:33:06;5.00;79.30
52036;DHT22;38046;49.448;32.074;2023-02-01T01:35:32;5.00;79.30
52036;DHT22;38046;49.448;32.074;2023-02-01T01:37:59;5.10;79.20
52036;DHT22;38046;49.448;32.074;2023-02-01T01:40:26;5.10;79.20
52036;DHT22;38046;49.448;32.074;2023-02-01T01:42:52;5.10;79.10
52036;DHT22;38046;49.448;32.074;2023-02-01T01:48:02;5.10;79.10
52036;DHT22;38046;49.448;32.074;2023-02-01T01:50:43;5.10;79.70
52036;DHT22;38046;49.448;32.074;2023-02-01T01:53:12;5.10;79.00
52036;DHT22;38046;49.448;32.074;2023-02-01T01:55:42;5.20;79.10
52036;DHT22;38046;49.448;32.074;2023-02-01T01:58:14;5.20;79.00
52036;DHT22;38046;49.448;32.074;2023-02-01T02:00:41;5.20;79.00
52036;DHT22;38046;49.448;32.074;2023-02-01T02:03:14;5.20;78.90
52036;DHT22;38046;49.448;32.074;2023-02-01T02:05:41;5.20;78.80
52036;DHT22;38046;49.448;32.074;2023-02-01T02:08:07;5.30;78.70
52036;DHT22;38046;49.448;32.074;2023-02-01T02:10:32;5.30;78.60
52036;DHT22;38046;49.448;32.074;2023-02-01T02:13:21;5.30;78.60
52036;DHT22;38046;49.448;32.074;2023-02-01T02:28:10;5.30;78.10
52036;DHT22;38046;49.448;32.074;2023-02-01T02:31:02;5.30;78.20
52036;DHT22;38046;49.448;32.074;2023-02-01T02:36:22;5.30;78.20
52036;DHT22;38046;49.448;32.074;2023-02-01T02:39:00;5.30;78.20
52036;DHT22;38046;49.448;32.074;2023-02-01T02:41:38;5.30;78.30
52036;DHT22;38046;49.448;32.074;2023-02-01T02:47:32;5.40;78.10
52036;DHT22;38046;49.448;32.074;2023-02-01T02:50:05;5.40;78.20
52036;DHT22;38046;49.448;32.074;2023-02-01T02:53:33;5.40;78.10
52036;DHT22;38046;49.448;32.074;2023-02-01T02:56:21;5.40;77.90
52036;DHT22;38046;49.448;32.074;2023-02-01T02:59:08;5.40;77.90
52036;DHT22;38046;49.448;32.074;2023-02-01T03:01:53;5.40;78.00
52036;DHT22;38046;49.448;32.074;2023-02-01T03:04:38;5.40;77.90
52036;DHT22;38046;49.448;32.074;2023-02-01T03:07:45;5.30;77.80
52036;DHT22;38046;49.448;32.074;2023-02-01T03:10:03;5.20;78.10
52036;DHT22;38046;49.448;32.074;2023-02-01T03:12:33;5.20;78.30
52036;DHT22;38046;49.448;32.074;2023-02-01T03:15:19;5.20;78.30
52036;DHT22;38046;49.448;32.074;2023-02-01T03:17:48;5.10;78.30
52036;DHT22;38046;49.448;32.074;2023-02-01T03:20:16;5.10;78.50
52036;DHT22;38046;49.448;32.074;2023-02-01T03:22:46;5.00;78.70
52036;DHT22;38046;49.448;32.074;2023-02-01T03:25:20;4.90;78.80
52036;DHT22;38046;49.448;32.074;2023-02-01T03:27:55;4.90;79.00
52036;DHT22;38046;49.448;32.074;2023-02-01T03:30:36;4.80;79.10
52036;DHT22;38046;49.448;32.074;2023-02-01T03:33:05;4.70;79.30
52036;DHT22;38046;49.448;32.074;2023-02-01T03:38:48;4.70;80.00
52036;DHT22;38046;49.448;32.074;2023-02-01T03:43:54;4.80;79.90
52036;DHT22;38046;49.448;32.074;2023-02-01T03:46:34;4.90;79.80
52036;DHT22;38046;49.448;32.074;2023-02-01T03:49:14;4.90;79.40
52036;DHT22;38046;49.448;32.074;2023-02-01T03:51:42;4.90;79.40
52036;DHT22;38046;49.448;32.074;2023-02-01T03:54:12;4.90;79.50
52036;DHT22;38046;49.448;32.074;2023-02-01T03:56:40;4.90;79.40
52036;DHT22;38046;49.448;32.074;2023-02-01T03:59:10;4.90;79.50
52036;DHT22;38046;49.448;32.074;2023-02-01T04:01:35;4.80;79.30
52036;DHT22;38046;49.448;32.074;2023-02-01T04:04:01;4.80;79.50
52036;DHT22;38046;49.448;32.074;2023-02-01T04:06:27;4.80;79.70
52036;DHT22;38046;49.448;32.074;2023-02-01T04:08:53;4.80;79.70
52036;DHT22;38046;49.448;32.074;2023-02-01T04:11:18;4.80;79.60
52036;DHT22;38046;49.448;32.074;2023-02-01T04:13:44;4.80;79.70
52036;DHT22;38046;49.448;32.074;2023-02-01T04:16:10;4.80;79.80
52036;DHT22;38046;49.448;32.074;2023-02-01T04:18:35;4.80;79.70
52036;DHT22;38046;49.448;32.074;2023-02-01T04:21:01;4.80;79.60
52036;DHT22;38046;49.448;32.074;2023-02-01T04:23:28;4.90;79.50
52036;DHT22;38046;49.448;32.074;2023-02-01T04:25:54;4.90;79.50
52036;DHT22;38046;49.448;32.074;2023-02-01T04:28:23;4.80;79.50
52036;DHT22;38046;49.448;32.074;2023-02-01T04:30:49;4.80;79.40
52036;DHT22;38046;49.448;32.074;2023-02-01T04:33:15;4.80;79.50
52036;DHT22;38046;49.448;32.074;2023-02-01T04:35:40;4.80;79.60
52036;DHT22;38046;49.448;32.074;2023-02-01T04:38:06;4.90;79.50
52036;DHT22;38046;49.448;32.074;2023-02-01T04:40:32;4.90;79.20
52036;DHT22;38046;49.448;32.074;2023-02-01T04:42:58;4.90;79.10
52036;DHT22;38046;49.448;32.074;2023-02-01T04:45:25;4.90;79.00
52036;DHT22;38046;49.448;32.074;2023-02-01T04:47:51;5.00;78.90
52036;DHT22;38046;49.448;32.074;2023-02-01T04:50:17;5.00;78.80
52036;DHT22;38046;49.448;32.074;2023-02-01T04:52:42;5.00;78.60
52036;DHT22;38046;49.448;32.074;2023-02-01T04:55:10;5.00;78.60
52036;DHT22;38046;49.448;32.074;2023-02-01T04:57:36;4.90;78.50
52036;DHT22;38046;49.448;32.074;2023-02-01T05:00:05;4.90;78.90
52036;DHT22;38046;49.448;32.074;2023-02-01T05:02:34;4.90;79.00
52036;DHT22;38046;49.448;32.074;2023-02-01T05:05:00;4.80;79.00
52036;DHT22;38046;49.448;32.074;2023-02-01T05:07:26;4.90;78.90
52036;DHT22;38046;49.448;32.074;2023-02-01T05:09:51;4.90;78.80
52036;DHT22;38046;49.448;32.074;2023-02-01T05:12:17;4.90;78.60
52036;DHT22;38046;49.448;32.074;2023-02-01T05:15:01;4.90;78.60
52036;DHT22;38046;49.448;32.074;2023-02-01T05:17:27;4.90;79.30
52036;DHT22;38046;49.448;32.074;2023-02-01T05:19:53;4.90;78.50
52036;DHT22;38046;49.448;32.074;2023-02-01T05:22:18;4.90;78.30
52036;DHT22;38046;49.448;32.074;2023-02-01T05:24:44;5.00;78.20
52036;DHT22;38046;49.448;32.074;2023-02-01T05:27:10;5.00;78.10
52036;DHT22;38046;49.448;32.074;2023-02-01T05:29:35;5.00;78.00
52036;DHT22;38046;49.448;32.074;2023-02-01T05:32:01;5.00;77.90
52036;DHT22;38046;49.448;32.074;2023-02-01T05:34:27;5.10;78.00
52036;DHT22;38046;49.448;32.074;2023-02-01T05:36:52;5.10;77.70
52036;DHT22;38046;49.448;32.074;2023-02-01T05:39:18;5.10;77.60
52036;DHT22;38046;49.448;32.074;2023-02-01T05:41:44;5.10;77.50
52036;DHT22;38046;49.448;32.074;2023-02-01T05:44:10;5.10;77.50
52036;DHT22;38046;49.448;32.074;2023-02-01T05:46:36;5.20;77.50
52036;DHT22;38046;49.448;32.074;2023-02-01T05:49:02;5.20;77.30
52036;DHT22;38046;49.448;32.074;2023-02-01T05:51:28;5.20;77.20
52036;DHT22;38046;49.448;32.074;2023-02-01T05:53:54;5.20;76.90
52036;DHT22;38046;49.448;32.074;2023-02-01T05:56:19;5.20;76.90
52036;DHT22;38046;49.448;32.074;2023-02-01T05:58:45;5.10;77.00
52036;DHT22;38046;49.448;32.074;2023-02-01T06:01:11;5.10;77.00
52036;DHT22;38046;49.448;32.074;2023-02-01T06:03:36;5.10;77.20
52036;DHT22;38046;49.448;32.074;2023-02-01T06:06:02;5.10;77.10
52036;DHT22;38046;49.448;32.074;2023-02-01T06:08:29;5.00;77.00
52036;DHT22;38046;49.448;32.074;2023-02-01T06:11:02;5.00;77.10
52036;DHT22;38046;49.448;32.074;2023-02-01T06:13:28;5.10;77.20
52036;DHT22;38046;49.448;32.074;2023-02-01T06:15:54;5.10;77.20
52036;DHT22;38046;49.448;32.074;2023-02-01T06:18:21;5.10;77.10
52036;DHT22;38046;49.448;32.074;2023-02-01T06:20:55;5.20;77.00
52036;DHT22;38046;49.448;32.074;2023-02-01T06:23:21;5.20;76.80
52036;DHT22;38046;49.448;32.074;2023-02-01T06:25:50;5.30;76.80
52036;DHT22;38046;49.448;32.074;2023-02-01T06:28:16;5.30;76.60
52036;DHT22;38046;49.448;32.074;2023-02-01T06:30:41;5.30;76.50
52036;DHT22;38046;49.448;32.074;2023-02-01T06:33:14;5.40;76.50
52036;DHT22;38046;49.448;32.074;2023-02-01T06:35:43;5.40;76.30
52036;DHT22;38046;49.448;32.074;2023-02-01T06:38:12;5.40;76.00
52036;DHT22;38046;49.448;32.074;2023-02-01T06:40:39;5.40;76.00
52036;DHT22;38046;49.448;32.074;2023-02-01T06:43:05;5.30;75.90
52036;DHT22;38046;49.448;32.074;2023-02-01T06:45:30;5.30;76.00
52036;DHT22;38046;49.448;32.074;2023-02-01T06:47:57;5.20;76.10
52036;DHT22;38046;49.448;32.074;2023-02-01T06:50:23;5.10;76.30
52036;DHT22;38046;49.448;32.074;2023-02-01T06:52:49;5.10;77.00
52036;DHT22;38046;49.448;32.074;2023-02-01T06:55:14;5.00;76.40
52036;DHT22;38046;49.448;32.074;2023-02-01T06:57:40;5.00;76.50
52036;DHT22;38046;49.448;32.074;2023-02-01T07:00:06;5.00;76.40
52036;DHT22;38046;49.448;32.074;2023-02-01T07:02:33;5.00;76.20
52036;DHT22;38046;49.448;32.074;2023-02-01T07:04:58;4.90;76.20
52036;DHT22;38046;49.448;32.074;2023-02-01T07:07:24;4.90;76.40
52036;DHT22;38046;49.448;32.074;2023-02-01T07:09:50;4.90;76.50
52036;DHT22;38046;49.448;32.074;2023-02-01T07:12:15;4.80;76.50
52036;DHT22;38046;49.448;32.074;2023-02-01T07:14:41;4.80;76.60
52036;DHT22;38046;49.448;32.074;2023-02-01T07:17:07;4.80;76.80
52036;DHT22;38046;49.448;32.074;2023-02-01T07:19:33;4.70;76.80
52036;DHT22;38046;49.448;32.074;2023-02-01T07:21:58;4.70;76.90
52036;DHT22;38046;49.448;32.074;2023-02-01T07:24:24;4.70;76.90
52036;DHT22;38046;49.448;32.074;2023-02-01T07:26:50;4.70;77.00
52036;DHT22;38046;49.448;32.074;2023-02-01T07:29:17;4.80;77.10
52036;DHT22;38046;49.448;32.074;2023-02-01T07:31:43;4.80;77.00
52036;DHT22;38046;49.448;32.074;2023-02-01T07:34:08;4.80;77.00
52036;DHT22;38046;49.448;32.074;2023-02-01T07:36:34;4.80;76.90
52036;DHT22;38046;49.448;32.074;2023-02-01T07:39:04;4.80;77.00
52036;DHT22;38046;49.448;32.074;2023-02-01T07:41:30;4.80;77.10
52036;DHT22;38046;49.448;32.074;2023-02-01T07:43:55;4.90;77.10
52036;DHT22;38046;49.448;32.074;2023-02-01T07:46:22;5.00;77.10
52036;DHT22;38046;49.448;32.074;2023-02-01T07:48:48;5.00;77.00
52036;DHT22;38046;49.448;32.074;2023-02-01T07:51:15;5.20;77.50
52036;DHT22;38046;49.448;32.074;2023-02-01T07:53:42;5.30;76.70
52036;DHT22;38046;49.448;32.074;2023-02-01T07:56:13;5.40;76.50
52036;DHT22;38046;49.448;32.074;2023-02-01T07:58:39;5.40;76.40
52036;DHT22;38046;49.448;32.074;2023-02-01T08:01:05;5.40;76.20
52036;DHT22;38046;49.448;32.074;2023-02-01T08:03:59;5.50;76.30
52036;DHT22;38046;49.448;32.074;2023-02-01T08:06:26;5.60;76.40
52036;DHT22;38046;49.448;32.074;2023-02-01T08:08:53;5.60;76.60
52036;DHT22;38046;49.448;32.074;2023-02-01T08:11:21;5.70;76.40
52036;DHT22;38046;49.448;32.074;2023-02-01T08:13:47;5.70;76.20
52036;DHT22;38046;49.448;32.074;2023-02-01T08:16:15;5.70;76.20
52036;DHT22;38046;49.448;32.074;2023-02-01T08:18:41;5.80;76.00
52036;DHT22;38046;49.448;32.074;2023-02-01T08:21:18;5.90;75.90
52036;DHT22;38046;49.448;32.074;2023-02-01T08:23:45;5.90;75.80
52036;DHT22;38046;49.448;32.074;2023-02-01T08:28:43;6.00;75.80
52036;DHT22;38046;49.448;32.074;2023-02-01T08:31:13;6.10;75.80
52036;DHT22;38046;49.448;32.074;2023-02-01T08:33:43;6.10;75.60
52036;DHT22;38046;49.448;32.074;2023-02-01T08:36:11;6.20;75.40
52036;DHT22;38046;49.448;32.074;2023-02-01T08:38:38;6.30;75.00
52036;DHT22;38046;49.448;32.074;2023-02-01T08:41:09;6.40;74.80
52036;DHT22;38046;49.448;32.074;2023-02-01T08:43:35;6.50;74.40
52036;DHT22;38046;49.448;32.074;2023-02-01T08:46:02;6.50;74.10
52036;DHT22;38046;49.448;32.074;2023-02-01T08:48:28;6.60;73.90
52036;DHT22;38046;49.448;32.074;2023-02-01T08:50:53;6.60;73.60
52036;DHT22;38046;49.448;32.074;2023-02-01T08:53:19;6.70;73.40
52036;DHT22;38046;49.448;32.074;2023-02-01T08:55:46;6.70;73.00
52036;DHT22;38046;49.448;32.074;2023-02-01T08:58:12;6.70;72.90
52036;DHT22;38046;49.448;32.074;2023-02-01T09:00:40;6.70;72.80
52036;DHT22;38046;49.448;32.074;2023-02-01T09:03:07;6.60;73.10
52036;DHT22;38046;49.448;32.074;2023-02-01T09:05:34;6.50;73.90
52036;DHT22;38046;49.448;32.074;2023-02-01T09:08:00;6.50;73.50
52036;DHT22;38046;49.448;32.074;2023-02-01T09:10:25;6.40;73.80
52036;DHT22;38046;49.448;32.074;2023-02-01T09:12:51;6.40;73.90
52036;DHT22;38046;49.448;32.074;2023-02-01T09:15:17;6.50;73.70
52036;DHT22;38046;49.448;32.074;2023-02-01T09:17:43;6.50;73.60
52036;DHT22;38046;49.448;32.074;2023-02-01T09:20:09;6.60;73.30
52036;DHT22;38046;49.448;32.074;2023-02-01T09:22:35;6.60;72.90
52036;DHT22;38046;49.448;32.074;2023-02-01T09:25:00;6.70;72.70
52036;DHT22;38046;49.448;32.074;2023-02-01T09:27:26;6.80;72.70
52036;DHT22;38046;49.448;32.074;2023-02-01T09:29:52;6.80;72.70
52036;DHT22;38046;49.448;32.074;2023-02-01T09:32:22;6.90;72.60
52036;DHT22;38046;49.448;32.074;2023-02-01T09:34:52;6.90;72.60
52036;DHT22;38046;49.448;32.074;2023-02-01T09:37:19;6.90;72.80
52036;DHT22;38046;49.448;32.074;2023-02-01T09:39:44;6.90;72.70
52036;DHT22;38046;49.448;32.074;2023-02-01T09:47:32;6.90;72.90
52036;DHT22;38046;49.448;32.074;2023-02-01T09:52:43;6.90;72.60
52036;DHT22;38046;49.448;32.074;2023-02-01T09:55:40;7.00;72.50
52036;DHT22;38046;49.448;32.074;2023-02-01T09:58:29;7.10;72.60
52036;DHT22;38046;49.448;32.074;2023-02-01T10:00:59;7.10;72.20
52036;DHT22;38046;49.448;32.074;2023-02-01T10:03:31;7.10;71.90
52036;DHT22;38046;49.448;32.074;2023-02-01T10:09:14;7.00;71.80
52036;DHT22;38046;49.448;32.074;2023-02-01T10:19:30;6.90;72.50
52036;DHT22;38046;49.448;32.074;2023-02-01T10:22:05;6.90;72.30
52036;DHT22;38046;49.448;32.074;2023-02-01T10:27:41;6.90;71.90
52036;DHT22;38046;49.448;32.074;2023-02-01T10:30:06;6.80;72.10
52036;DHT22;38046;49.448;32.074;2023-02-01T10:32:35;6.80;72.00
52036;DHT22;38046;49.448;32.074;2023-02-01T10:35:22;6.70;72.10
52036;DHT22;38046;49.448;32.074;2023-02-01T10:37:49;6.60;72.30
52036;DHT22;38046;49.448;32.074;2023-02-01T10:40:24;6.60;72.40
52036;DHT22;38046;49.448;32.074;2023-02-01T10:42:59;6.70;72.20
52036;DHT22;38046;49.448;32.074;2023-02-01T10:45:29;6.70;72.00
52036;DHT22;38046;49.448;32.074;2023-02-01T10:47:57;6.80;72.00
52036;DHT22;38046;49.448;32.074;2023-02-01T10:50:47;6.80;71.80
52036;DHT22;38046;49.448;32.074;2023-02-01T10:55:47;6.70;71.70
52036;DHT22;38046;49.448;32.074;2023-02-01T11:01:08;6.60;71.80
52036;DHT22;38046;49.448;32.074;2023-02-01T11:03:42;6.60;71.90
52036;DHT22;38046;49.448;32.074;2023-02-01T11:06:25;6.50;72.20
52036;DHT22;38046;49.448;32.074;2023-02-01T11:08:57;6.50;72.10
52036;DHT22;38046;49.448;32.074;2023-02-01T11:11:24;6.50;72.00
52036;DHT22;38046;49.448;32.074;2023-02-01T11:13:59;6.50;71.80
52036;DHT22;38046;49.448;32.074;2023-02-01T11:16:48;6.50;71.70
52036;DHT22;38046;49.448;32.074;2023-02-01T11:19:16;6.60;71.50
52036;DHT22;38046;49.448;32.074;2023-02-01T11:21:43;6.60;71.40
52036;DHT22;38046;49.448;32.074;2023-02-01T11:24:31;6.70;71.30
52036;DHT22;38046;49.448;32.074;2023-02-01T11:27:00;6.70;71.00
52036;DHT22;38046;49.448;32.074;2023-02-01T11:29:36;6.70;71.10
52036;DHT22;38046;49.448;32.074;2023-02-01T11:32:03;6.70;70.80
52036;DHT22;38046;49.448;32.074;2023-02-01T11:34:39;6.70;70.90
52036;DHT22;38046;49.448;32.074;2023-02-01T11:37:17;6.80;70.90
52036;DHT22;38046;49.448;32.074;2023-02-01T11:40:35;6.80;71.00
52036;DHT22;38046;49.448;32.074;2023-02-01T11:43:14;6.80;70.90
52036;DHT22;38046;49.448;32.074;2023-02-01T11:45:40;6.80;70.50
52036;DHT22;38046;49.448;32.074;2023-02-01T11:48:14;6.80;70.50
52036;DHT22;38046;49.448;32.074;2023-02-01T11:56:35;6.90;70.20
52036;DHT22;38046;49.448;32.074;2023-02-01T11:59:19;6.90;70.00
52036;DHT22;38046;49.448;32.074;2023-02-01T12:05:00;6.90;69.70
52036;DHT22;38046;49.448;32.074;2023-02-01T12:10:50;6.90;69.20
52036;DHT22;38046;49.448;32.074;2023-02-01T12:25:22;7.10;68.30
52036;DHT22;38046;49.448;32.074;2023-02-01T12:39:32;7.40;67.10
52036;DHT22;38046;49.448;32.074;2023-02-01T12:44:59;7.50;66.90
52036;DHT22;38046;49.448;32.074;2023-02-01T12:50:15;7.60;66.70
52036;DHT22;38046;49.448;32.074;2023-02-01T12:52:51;7.70;66.50
52036;DHT22;38046;49.448;32.074;2023-02-01T12:58:16;7.60;66.00
52036;DHT22;38046;49.448;32.074;2023-02-01T13:01:06;7.50;65.70
52036;DHT22;38046;49.448;32.074;2023-02-01T13:11:38;7.30;66.10
52036;DHT22;38046;49.448;32.074;2023-02-01T13:16:45;7.20;65.70
52036;DHT22;38046;49.448;32.074;2023-02-01T13:21:55;7.10;65.80
52036;DHT22;38046;49.448;32.074;2023-02-01T13:24:31;7.20;66.00
52036;DHT22;38046;49.448;32.074;2023-02-01T13:26:58;7.20;65.90
52036;DHT22;38046;49.448;32.074;2023-02-01T13:29:25;7.20;65.80
52036;DHT22;38046;49.448;32.074;2023-02-01T13:32:32;7.20;65.90
52036;DHT22;38046;49.448;32.074;2023-02-01T13:35:15;7.30;65.80
52036;DHT22;38046;49.448;32.074;2023-02-01T13:37:48;7.30;65.80
52036;DHT22;38046;49.448;32.074;2023-02-01T13:43:14;7.40;65.60
52036;DHT22;38046;49.448;32.074;2023-02-01T13:45:47;7.40;65.30
52036;DHT22;38046;49.448;32.074;2023-02-01T13:51:01;7.30;64.90
52036;DHT22;38046;49.448;32.074;2023-02-01T13:53:30;7.30;64.90
52036;DHT22;38046;49.448;32.074;2023-02-01T13:56:10;7.30;64.90
52036;DHT22;38046;49.448;32.074;2023-02-01T13:58:39;7.30;65.00
52036;DHT22;38046;49.448;32.074;2023-02-01T14:09:15;7.20;64.80
52036;DHT22;38046;49.448;32.074;2023-02-01T14:11:49;7.10;64.80
52036;DHT22;38046;49.448;32.074;2023-02-01T14:19:24;7.00;64.60
52036;DHT22;38046;49.448;32.074;2023-02-01T14:24:30;6.90;64.50
52036;DHT22;38046;49.448;32.074;2023-02-01T14:26:59;6.90;64.70
52036;DHT22;38046;49.448;32.074;2023-02-01T14:29:35;6.90;64.60
52036;DHT22;38046;49.448;32.074;2023-02-01T14:32:17;6.90;64.50
52036;DHT22;38046;49.448;32.074;2023-02-01T14:40:02;6.70;64.50
52036;DHT22;38046;49.448;32.074;2023-02-01T14:42:48;6.70;64.70
52036;DHT22;38046;49.448;32.074;2023-02-01T14:50:47;6.60;64.90
52036;DHT22;38046;49.448;32.074;2023-02-01T14:53:17;6.60;65.10
52036;DHT22;38046;49.448;32.074;2023-02-01T15:03:47;6.50;65.30
52036;DHT22;38046;49.448;32.074;2023-02-01T15:06:41;6.50;65.30
52036;DHT22;38046;49.448;32.074;2023-02-01T15:12:16;6.30;65.80
52036;DHT22;38046;49.448;32.074;2023-02-01T15:14:48;6.20;66.00
52036;DHT22;38046;49.448;32.074;2023-02-01T15:17:27;6.20;66.30
52036;DHT22;38046;49.448;32.074;2023-02-01T15:20:03;6.20;66.60
52036;DHT22;38046;49.448;32.074;2023-02-01T15:22:30;6.10;66.70
52036;DHT22;38046;49.448;32.074;2023-02-01T15:25:00;6.10;66.80
52036;DHT22;38046;49.448;32.074;2023-02-01T15:27:29;6.00;67.00
52036;DHT22;38046;49.448;32.074;2023-02-01T15:30:20;6.00;67.20
52036;DHT22;38046;49.448;32.074;2023-02-01T15:32:47;5.90;67.30
52036;DHT22;38046;49.448;32.074;2023-02-01T15:38:21;5.90;67.70
52036;DHT22;38046;49.448;32.074;2023-02-01T15:43:31;6.00;67.90
52036;DHT22;38046;49.448;32.074;2023-02-01T15:46:00;6.00;68.00
52036;DHT22;38046;49.448;32.074;2023-02-01T15:48:32;6.10;68.10
52036;DHT22;38046;49.448;32.074;2023-02-01T15:51:00;6.10;68.20
52036;DHT22;38046;49.448;32.074;2023-02-01T15:53:26;6.10;68.20
52036;DHT22;38046;49.448;32.074;2023-02-01T15:55:59;6.10;68.20
52036;DHT22;38046;49.448;32.074;2023-02-01T15:58:26;6.10;68.20
52036;DHT22;38046;49.448;32.074;2023-02-01T16:00:56;6.10;68.30
52036;DHT22;38046;49.448;32.074;2023-02-01T16:03:40;6.10;68.40
52036;DHT22;38046;49.448;32.074;2023-02-01T16:06:32;6.10;68.60
52036;DHT22;38046;49.448;32.074;2023-02-01T16:09:13;6.10;68.70
52036;DHT22;38046;49.448;32.074;2023-02-01T16:14:13;6.10;68.80
52036;DHT22;38046;49.448;32.074;2023-02-01T16:16:39;6.10;69.00
52036;DHT22;38046;49.448;32.074;2023-02-01T16:19:05;6.10;69.20
52036;DHT22;38046;49.448;32.074;2023-02-01T16:21:31;6.10;69.40
52036;DHT22;38046;49.448;32.074;2023-02-01T16:23:56;6.10;69.40
52036;DHT22;38046;49.448;32.074;2023-02-01T16:26:22;6.00;69.40
52036;DHT22;38046;49.448;32.074;2023-02-01T16:28:48;6.00;69.60
52036;DHT22;38046;49.448;32.074;2023-02-01T16:31:16;6.00;69.80
52036;DHT22;38046;49.448;32.074;2023-02-01T16:33:49;6.00;70.10
52036;DHT22;38046;49.448;32.074;2023-02-01T16:36:16;6.00;70.30
52036;DHT22;38046;49.448;32.074;2023-02-01T16:38:41;6.00;70.40
52036;DHT22;38046;49.448;32.074;2023-02-01T16:41:13;6.00;70.50
52036;DHT22;38046;49.448;32.074;2023-02-01T16:43:40;6.00;71.00
52036;DHT22;38046;49.448;32.074;2023-02-01T16:46:05;6.00;70.80
52036;DHT22;38046;49.448;32.074;2023-02-01T16:48:37;6.00;70.80
52036;DHT22;38046;49.448;32.074;2023-02-01T16:51:10;5.90;71.00
52036;DHT22;38046;49.448;32.074;2023-02-01T16:53:37;5.90;71.10
52036;DHT22;38046;49.448;32.074;2023-02-01T16:56:12;5.90;71.40
52036;DHT22;38046;49.448;32.074;2023-02-01T16:58:38;5.80;71.50
52036;DHT22;38046;49.448;32.074;2023-02-01T17:01:06;5.80;71.60
52036;DHT22;38046;49.448;32.074;2023-02-01T17:03:32;5.80;71.80
52036;DHT22;38046;49.448;32.074;2023-02-01T17:05:58;5.70;71.90
52036;DHT22;38046;49.448;32.074;2023-02-01T17:08:35;5.70;72.20
52036;DHT22;38046;49.448;32.074;2023-02-01T17:11:02;5.70;72.20
52036;DHT22;38046;49.448;32.074;2023-02-01T17:13:28;5.70;72.30
52036;DHT22;38046;49.448;32.074;2023-02-01T17:15:58;5.70;72.50
52036;DHT22;38046;49.448;32.074;2023-02-01T17:18:27;5.60;72.60
52036;DHT22;38046;49.448;32.074;2023-02-01T17:20:57;5.50;72.80
52036;DHT22;38046;49.448;32.074;2023-02-01T17:23:23;5.50;73.00
52036;DHT22;38046;49.448;32.074;2023-02-01T17:25:48;5.50;73.40
52036;DHT22;38046;49.448;32.074;2023-02-01T17:28:14;5.50;73.50
52036;DHT22;38046;49.448;32.074;2023-02-01T17:30:40;5.50;73.60
52036;DHT22;38046;49.448;32.074;2023-02-01T17:33:23;5.50;73.60
52036;DHT22;38046;49.448;32.074;2023-02-01T17:35:49;5.40;73.70
52036;DHT22;38046;49.448;32.074;2023-02-01T17:38:15;5.40;73.90
52036;DHT22;38046;49.448;32.074;2023-02-01T17:40:40;5.40;74.10
52036;DHT22;38046;49.448;32.074;2023-02-01T17:43:13;5.40;74.10
52036;DHT22;38046;49.448;32.074;2023-02-01T17:45:46;5.40;74.20
52036;DHT22;38046;49.448;32.074;2023-02-01T17:48:17;5.40;74.50
52036;DHT22;38046;49.448;32.074;2023-02-01T17:50:44;5.30;74.50
52036;DHT22;38046;49.448;32.074;2023-02-01T17:53:13;5.30;74.80
52036;DHT22;38046;49.448;32.074;2023-02-01T17:55:43;5.30;74.90
52036;DHT22;38046;49.448;32.074;2023-02-01T17:58:13;5.30;75.20
52036;DHT22;38046;49.448;32.074;2023-02-01T18:00:40;5.20;75.40
52036;DHT22;38046;49.448;32.074;2023-02-01T18:03:09;5.20;75.70
52036;DHT22;38046;49.448;32.074;2023-02-01T18:05:42;5.20;75.80
52036;DHT22;38046;49.448;32.074;2023-02-01T18:08:15;5.30;76.00
52036;DHT22;38046;49.448;32.074;2023-02-01T18:10:41;5.30;75.90
52036;DHT22;38046;49.448;32.074;2023-02-01T18:13:07;5.30;75.80
52036;DHT22;38046;49.448;32.074;2023-02-01T18:15:34;5.40;75.80
52036;DHT22;38046;49.448;32.074;2023-02-01T18:18:00;5.40;75.90
52036;DHT22;38046;49.448;32.074;2023-02-01T18:20:26;5.40;75.70
52036;DHT22;38046;49.448;32.074;2023-02-01T18:22:52;5.40;75.70
52036;DHT22;38046;49.448;32.074;2023-02-01T18:25:26;5.50;75.80
52036;DHT22;38046;49.448;32.074;2023-02-01T18:27:53;5.40;75.80
52036;DHT22;38046;49.448;32.074;2023-02-01T18:30:27;5.40;76.10
52036;DHT22;38046;49.448;32.074;2023-02-01T18:32:55;5.40;76.20
52036;DHT22;38046;49.448;32.074;2023-02-01T18:35:28;5.30;76.20